Terminal Aerodrome Forecast
Issued by NWS

Home | Current Version | Previous Version | Text Only | Print | Product List | Glossary On
Versions: 1 2 3 4 5 6 7 8 9 10 11 12 13 14 15 16
000
FTUS45 KLKN 230520
TAFEKO
TAF
KEKO 230520Z 2306/2406 30004KT P6SM VCSH SCT006 OVC035
      TEMPO 2306/2309 4SM -SHSN BKN006
     FM231200 28012KT P6SM SCT050
     FM240300 VRB03KT P6SM FEW060 SCT200=

USA.gov is the U.S. government's official web portal to all federal, state and local government web resources and services.